createdAt,value
2023-06-06T00:00:20.736Z,22.90
2023-06-06T00:02:48.490Z,24.00
2023-06-06T00:05:16.181Z,22.10
2023-06-06T00:07:47.515Z,19.60
2023-06-06T00:10:15.632Z,15.90
2023-06-06T00:12:45.268Z,26.10
2023-06-06T00:15:14.046Z,26.50
2023-06-06T00:17:42.462Z,28.00
2023-06-06T00:20:10.650Z,30.70
2023-06-06T00:22:38.214Z,26.20
2023-06-06T00:25:06.256Z,21.60
2023-06-06T00:27:34.196Z,18.40
2023-06-06T00:30:01.871Z,17.20
2023-06-06T00:32:29.553Z,17.30
2023-06-06T00:34:57.123Z,21.40
2023-06-06T00:37:24.714Z,18.20
2023-06-06T00:39:52.271Z,18.90
2023-06-06T00:42:19.789Z,16.60
2023-06-06T00:44:47.952Z,21.90
2023-06-06T00:47:16.070Z,18.60
2023-06-06T00:49:43.803Z,16.70
2023-06-06T00:52:11.472Z,18.80
2023-06-06T00:54:39.241Z,16.80
2023-06-06T00:57:08.670Z,12.40
2023-06-06T00:59:36.596Z,18.50
2023-06-06T01:02:05.794Z,27.10
2023-06-06T01:04:33.476Z,20.70
2023-06-06T01:07:00.889Z,28.50
2023-06-06T01:09:28.547Z,30.10
2023-06-06T01:12:10.042Z,34.20
2023-06-06T01:14:56.958Z,31.70
2023-06-06T01:17:27.281Z,89.50
2023-06-06T01:19:57.966Z,85.20
2023-06-06T01:22:28.692Z,113.60
2023-06-06T01:24:56.842Z,87.40
2023-06-06T01:27:25.054Z,79.50
2023-06-06T01:29:52.502Z,76.50
2023-06-06T01:32:34.343Z,71.30
2023-06-06T01:35:04.083Z,80.70
2023-06-06T01:37:36.729Z,69.90
2023-06-06T01:40:07.290Z,81.40
2023-06-06T01:42:36.147Z,68.80
2023-06-06T01:45:03.795Z,60.90
2023-06-06T01:47:31.706Z,45.40
2023-06-06T01:49:59.150Z,27.50
2023-06-06T01:52:29.467Z,27.00
2023-06-06T01:54:57.433Z,31.70
2023-06-06T01:57:24.985Z,45.20
2023-06-06T01:59:52.631Z,40.50
2023-06-06T02:02:20.205Z,92.40
2023-06-06T02:04:49.284Z,76.50
2023-06-06T02:07:18.357Z,85.20
2023-06-06T02:09:46.259Z,41.30
2023-06-06T02:12:13.796Z,44.60
2023-06-06T02:14:42.367Z,59.10
2023-06-06T02:17:09.866Z,66.90
2023-06-06T02:19:37.381Z,57.60
2023-06-06T02:22:05.067Z,56.90
2023-06-06T02:24:34.303Z,48.20
2023-06-06T02:27:02.673Z,46.90
2023-06-06T02:29:30.149Z,43.20
2023-06-06T02:31:57.609Z,42.10
2023-06-06T02:34:26.535Z,40.00
2023-06-06T02:36:55.303Z,36.70
2023-06-06T02:39:22.778Z,35.20
2023-06-06T02:41:51.710Z,39.10
2023-06-06T02:44:21.170Z,51.90
2023-06-06T02:46:48.756Z,63.00
2023-06-06T02:49:16.636Z,42.20
2023-06-06T02:51:45.332Z,53.40
2023-06-06T02:54:12.862Z,39.60
2023-06-06T02:56:40.559Z,45.80
2023-06-06T02:59:11.064Z,44.60
2023-06-06T03:01:45.713Z,36.20
2023-06-06T03:04:14.070Z,27.60
2023-06-06T03:06:44.736Z,25.90
2023-06-06T03:09:14.339Z,34.80
2023-06-06T03:14:55.875Z,36.90
2023-06-06T03:17:27.414Z,39.10
2023-06-06T03:19:55.041Z,23.60
2023-06-06T03:22:22.934Z,27.40
2023-06-06T03:24:51.463Z,39.10
2023-06-06T03:27:20.077Z,37.30
2023-06-06T03:29:47.822Z,28.50
2023-06-06T03:32:15.487Z,32.70
2023-06-06T03:34:43.473Z,24.90
2023-06-06T03:37:12.526Z,27.50
2023-06-06T03:39:41.076Z,18.30
2023-06-06T03:42:10.235Z,19.90
2023-06-06T03:44:38.181Z,16.40
2023-06-06T03:47:07.186Z,18.90
2023-06-06T03:49:38.017Z,17.60
2023-06-06T03:52:05.782Z,21.60
2023-06-06T03:54:37.859Z,21.30
2023-06-06T03:57:07.236Z,17.20
2023-06-06T03:59:34.717Z,19.50
2023-06-06T04:02:02.265Z,18.10
2023-06-06T04:04:32.557Z,19.20
2023-06-06T04:07:00.150Z,17.00
2023-06-06T04:09:27.848Z,21.30
2023-06-06T04:11:55.653Z,20.30
2023-06-06T04:14:24.695Z,20.10
2023-06-06T04:16:52.402Z,20.90
2023-06-06T04:19:21.059Z,22.60
2023-06-06T04:21:49.126Z,19.20
2023-06-06T04:24:18.242Z,31.80
2023-06-06T04:26:47.843Z,25.70
2023-06-06T04:29:15.491Z,22.80
2023-06-06T04:31:46.306Z,23.40
2023-06-06T04:34:15.436Z,21.10
2023-06-06T04:36:43.257Z,23.90
2023-06-06T04:39:11.199Z,22.80
2023-06-06T04:44:12.229Z,23.40
2023-06-06T04:46:42.636Z,21.60
2023-06-06T04:49:10.380Z,22.40
2023-06-06T04:51:39.324Z,24.20
2023-06-06T04:54:07.533Z,28.20
2023-06-06T04:56:35.689Z,25.60
2023-06-06T04:59:07.749Z,26.70
2023-06-06T05:01:37.773Z,25.50
2023-06-06T05:04:06.512Z,24.10
2023-06-06T05:06:35.627Z,18.80
2023-06-06T05:09:05.542Z,16.70
2023-06-06T05:11:33.216Z,22.70
2023-06-06T05:14:00.845Z,16.70
2023-06-06T05:16:28.493Z,16.20
2023-06-06T05:18:56.065Z,14.40
2023-06-06T05:21:23.668Z,14.80
2023-06-06T05:23:51.240Z,19.80
2023-06-06T05:26:18.858Z,20.20
2023-06-06T05:28:46.506Z,20.20
2023-06-06T05:31:18.225Z,21.00
2023-06-06T05:33:45.800Z,26.10
2023-06-06T05:36:13.347Z,33.30
2023-06-06T05:38:41.224Z,28.90
2023-06-06T05:41:08.940Z,24.70
2023-06-06T05:43:36.715Z,25.10
2023-06-06T05:46:04.329Z,23.30
2023-06-06T05:48:32.567Z,28.90
2023-06-06T05:51:00.126Z,29.60
2023-06-06T05:53:29.364Z,24.60
2023-06-06T05:55:57.095Z,24.20
2023-06-06T05:58:24.732Z,22.40
2023-06-06T06:00:52.693Z,18.70
2023-06-06T06:03:22.226Z,20.60
2023-06-06T06:05:51.031Z,16.60
2023-06-06T06:08:19.055Z,17.20
2023-06-06T06:10:46.583Z,10.60
2023-06-06T06:13:14.138Z,21.60
2023-06-06T06:15:41.650Z,12.80
2023-06-06T06:18:09.311Z,7.30
2023-06-06T06:20:36.888Z,15.40
2023-06-06T06:23:04.502Z,11.50
2023-06-06T06:25:32.326Z,4.90
2023-06-06T06:28:00.138Z,8.30
2023-06-06T06:30:27.882Z,10.70
2023-06-06T06:32:56.852Z,5.80
2023-06-06T06:35:24.551Z,5.10
2023-06-06T06:37:52.741Z,5.50
2023-06-06T06:40:20.823Z,6.60
2023-06-06T06:42:48.474Z,6.10
2023-06-06T06:45:25.114Z,15.40
2023-06-06T06:47:52.751Z,5.20
2023-06-06T06:50:20.322Z,5.00
2023-06-06T06:52:48.108Z,5.00
2023-06-06T06:55:16.018Z,4.20
2023-06-06T06:57:44.908Z,8.40
2023-06-06T07:00:16.762Z,4.20
2023-06-06T07:02:45.870Z,5.30
2023-06-06T07:05:13.951Z,6.90
2023-06-06T07:07:48.166Z,11.70
2023-06-06T07:10:18.929Z,12.10
2023-06-06T07:12:50.444Z,11.10
2023-06-06T07:15:19.256Z,5.40
2023-06-06T07:17:53.129Z,5.80
2023-06-06T07:22:51.894Z,8.00
2023-06-06T07:25:19.844Z,7.00
2023-06-06T07:27:47.410Z,8.10
2023-06-06T07:30:15.807Z,11.90
2023-06-06T07:32:44.097Z,5.30
2023-06-06T07:35:12.462Z,6.00
2023-06-06T07:37:40.097Z,4.50
2023-06-06T07:40:12.245Z,6.30
2023-06-06T07:42:43.391Z,5.30
2023-06-06T07:45:11.350Z,5.40
2023-06-06T07:47:39.613Z,6.30
2023-06-06T07:50:07.683Z,7.30
2023-06-06T07:52:36.403Z,6.80
2023-06-06T07:55:06.469Z,7.00
2023-06-06T07:57:35.062Z,4.30
2023-06-06T08:00:08.577Z,3.40
2023-06-06T08:02:41.197Z,4.30
2023-06-06T08:05:09.441Z,6.40
2023-06-06T08:07:42.381Z,6.40
2023-06-06T08:10:10.319Z,11.00
2023-06-06T08:12:38.430Z,4.50
2023-06-06T08:15:06.215Z,3.50
2023-06-06T08:17:33.922Z,3.50
2023-06-06T08:20:01.547Z,3.20
2023-06-06T08:22:29.298Z,4.10
2023-06-06T08:24:56.845Z,22.10
2023-06-06T08:27:24.426Z,4.40
2023-06-06T08:29:51.984Z,3.30
2023-06-06T08:32:19.769Z,6.80
2023-06-06T08:34:47.470Z,2.70
2023-06-06T08:37:15.021Z,3.00
2023-06-06T08:39:45.730Z,3.90
2023-06-06T08:42:16.217Z,3.50
2023-06-06T08:44:43.706Z,5.50
2023-06-06T08:47:11.392Z,6.40
2023-06-06T08:49:38.876Z,6.10
2023-06-06T08:52:06.834Z,6.80
2023-06-06T08:54:34.416Z,7.30
2023-06-06T08:57:09.109Z,7.80
2023-06-06T08:59:39.591Z,5.10
2023-06-06T09:02:07.893Z,6.60
2023-06-06T09:04:35.503Z,7.30
2023-06-06T09:07:03.793Z,6.80
2023-06-06T09:09:34.635Z,7.40
2023-06-06T09:12:02.249Z,8.40
2023-06-06T09:14:29.839Z,7.90
2023-06-06T09:16:57.377Z,5.70
2023-06-06T09:19:25.688Z,6.90
2023-06-06T09:21:53.469Z,5.10
2023-06-06T09:24:21.705Z,6.10
2023-06-06T09:26:49.686Z,4.50
2023-06-06T09:29:17.388Z,4.90
2023-06-06T09:31:45.673Z,13.90
2023-06-06T09:34:13.520Z,11.00
2023-06-06T09:36:50.473Z,14.80
2023-06-06T09:39:17.978Z,6.40
2023-06-06T09:41:48.924Z,5.80
2023-06-06T09:44:20.805Z,7.80
2023-06-06T09:46:58.911Z,5.50
2023-06-06T09:49:26.483Z,5.50
2023-06-06T09:51:54.618Z,10.00
2023-06-06T09:54:23.139Z,5.50
2023-06-06T09:56:50.868Z,6.50
2023-06-06T09:59:18.646Z,6.10
2023-06-06T10:01:46.364Z,4.40
2023-06-06T10:04:16.143Z,5.20
2023-06-06T10:06:45.126Z,5.80
2023-06-06T10:09:13.084Z,6.50
2023-06-06T10:11:41.300Z,7.10
2023-06-06T10:14:10.090Z,4.70
2023-06-06T10:16:38.178Z,6.50
2023-06-06T10:19:05.698Z,7.10
2023-06-06T10:21:33.472Z,6.30
2023-06-06T10:24:01.366Z,4.80
2023-06-06T10:26:33.740Z,7.10
2023-06-06T10:29:03.173Z,7.60
2023-06-06T10:31:50.900Z,7.00
2023-06-06T10:34:20.876Z,5.50
2023-06-06T10:36:48.486Z,6.40
2023-06-06T10:39:19.774Z,6.60
2023-06-06T10:41:52.290Z,4.70
2023-06-06T10:44:20.174Z,7.90
2023-06-06T10:46:51.502Z,4.10
2023-06-06T10:49:22.502Z,4.80
2023-06-06T10:51:50.430Z,4.70
2023-06-06T10:54:28.693Z,6.00
2023-06-06T10:56:56.470Z,4.60
2023-06-06T10:59:28.058Z,6.70
2023-06-06T11:01:56.566Z,10.50
2023-06-06T11:04:25.055Z,5.20
2023-06-06T11:06:59.646Z,5.90
2023-06-06T11:09:29.831Z,6.40
2023-06-06T11:12:18.070Z,4.90
2023-06-06T11:15:05.512Z,6.00
2023-06-06T11:17:51.566Z,21.40
2023-06-06T11:20:20.131Z,4.10
2023-06-06T11:22:52.605Z,4.40
2023-06-06T11:25:25.140Z,4.90
2023-06-06T11:27:52.849Z,4.20
2023-06-06T11:30:20.804Z,7.30
2023-06-06T11:32:48.678Z,7.30
2023-06-06T11:35:20.112Z,5.40
2023-06-06T11:37:47.839Z,4.80
2023-06-06T11:40:16.231Z,4.40
2023-06-06T11:42:44.869Z,5.80
2023-06-06T11:45:21.550Z,27.80
2023-06-06T11:47:50.370Z,5.50
2023-06-06T11:50:30.222Z,3.90
2023-06-06T11:53:02.166Z,6.20
2023-06-06T11:55:36.947Z,5.80
2023-06-06T11:58:05.741Z,4.80
2023-06-06T12:00:34.632Z,3.20
2023-06-06T12:03:03.512Z,5.10
2023-06-06T12:05:31.823Z,4.30
2023-06-06T12:08:00.274Z,5.10
2023-06-06T12:10:29.272Z,8.00
2023-06-06T12:12:56.855Z,5.90
2023-06-06T12:15:28.899Z,4.80
2023-06-06T12:18:03.768Z,4.10
2023-06-06T12:20:31.676Z,5.90
2023-06-06T12:22:59.209Z,5.50
2023-06-06T12:25:28.123Z,7.30
2023-06-06T12:27:56.318Z,5.20
2023-06-06T12:30:33.422Z,4.50
2023-06-06T12:33:03.012Z,6.60
2023-06-06T12:35:30.770Z,4.60
2023-06-06T12:38:00.520Z,4.80
2023-06-06T12:40:32.089Z,5.70
2023-06-06T12:43:00.642Z,18.70
2023-06-06T12:45:28.865Z,6.90
2023-06-06T12:47:56.963Z,4.00
2023-06-06T12:50:25.229Z,6.50
2023-06-06T12:52:53.052Z,9.70
2023-06-06T12:55:21.000Z,4.00
2023-06-06T12:57:51.520Z,4.90
2023-06-06T13:00:20.933Z,5.00
2023-06-06T13:02:48.520Z,6.70
2023-06-06T13:05:16.506Z,6.90
2023-06-06T13:07:44.143Z,4.30
2023-06-06T13:10:13.636Z,5.60
2023-06-06T13:12:41.656Z,4.00
2023-06-06T13:15:10.005Z,5.40
2023-06-06T13:17:37.882Z,7.50
2023-06-06T13:20:07.752Z,5.50
2023-06-06T13:22:36.545Z,8.30
2023-06-06T13:25:04.867Z,5.70
2023-06-06T13:27:32.692Z,6.20
2023-06-06T13:30:02.540Z,5.00
2023-06-06T13:32:30.167Z,4.00
2023-06-06T13:34:58.071Z,5.80
2023-06-06T13:37:25.798Z,6.50
2023-06-06T13:39:53.288Z,3.80
2023-06-06T13:42:21.971Z,4.90
2023-06-06T13:44:49.591Z,4.40
2023-06-06T13:47:17.072Z,6.70
2023-06-06T13:49:44.801Z,3.90
2023-06-06T13:52:12.346Z,5.40
2023-06-06T13:54:39.863Z,7.00
2023-06-06T13:57:13.711Z,3.90
2023-06-06T13:59:42.186Z,5.10
2023-06-06T14:02:10.612Z,7.60
2023-06-06T14:04:38.537Z,4.20
2023-06-06T14:07:08.930Z,5.90
2023-06-06T14:09:36.500Z,4.30
2023-06-06T14:12:04.339Z,4.00
2023-06-06T14:14:32.005Z,6.00
2023-06-06T14:17:01.160Z,7.00
2023-06-06T14:19:39.188Z,3.70
2023-06-06T14:22:25.194Z,4.00
2023-06-06T14:24:55.800Z,4.10
2023-06-06T14:27:24.145Z,4.20
2023-06-06T14:29:52.327Z,7.30
2023-06-06T14:32:21.633Z,9.30
2023-06-06T14:34:49.412Z,8.00
2023-06-06T14:37:16.836Z,6.40
2023-06-06T14:39:44.313Z,5.60
2023-06-06T14:42:13.249Z,3.40
2023-06-06T14:44:40.738Z,3.70
2023-06-06T14:47:09.374Z,4.60
2023-06-06T14:49:40.767Z,4.30
2023-06-06T14:52:11.577Z,6.10
2023-06-06T14:54:40.621Z,8.60
2023-06-06T14:57:08.597Z,3.30
2023-06-06T14:59:36.232Z,4.00
2023-06-06T15:02:04.297Z,6.10
2023-06-06T15:04:36.125Z,6.40
2023-06-06T15:07:05.394Z,7.60
2023-06-06T15:09:33.344Z,5.40
2023-06-06T15:12:02.011Z,4.00
2023-06-06T15:14:29.735Z,4.40
2023-06-06T15:16:58.480Z,3.80
2023-06-06T15:19:26.171Z,5.60
2023-06-06T15:21:53.723Z,3.30
2023-06-06T15:24:25.324Z,5.10
2023-06-06T15:26:57.816Z,21.00
2023-06-06T15:32:24.139Z,7.90
2023-06-06T15:34:51.940Z,6.10
2023-06-06T15:37:19.458Z,5.20
2023-06-06T15:39:47.090Z,8.70
2023-06-06T15:42:14.691Z,5.90
2023-06-06T15:44:43.083Z,5.40
2023-06-06T15:47:11.127Z,5.90
2023-06-06T15:49:38.697Z,4.00
2023-06-06T15:52:06.292Z,5.70
2023-06-06T15:54:34.892Z,6.20
2023-06-06T15:57:02.358Z,6.20
2023-06-06T15:59:29.859Z,5.50
2023-06-06T16:01:57.709Z,6.90
2023-06-06T16:04:27.146Z,4.70
2023-06-06T16:06:54.884Z,4.50
2023-06-06T16:09:22.991Z,3.50
2023-06-06T16:11:50.782Z,5.40
2023-06-06T16:14:18.333Z,6.90
2023-06-06T16:16:46.232Z,4.70
2023-06-06T16:19:14.054Z,5.40
2023-06-06T16:21:41.703Z,5.30
2023-06-06T16:24:09.393Z,3.30
2023-06-06T16:26:37.253Z,4.60
2023-06-06T16:29:05.090Z,5.70
2023-06-06T16:31:33.057Z,5.50
2023-06-06T16:34:00.716Z,5.00
2023-06-06T16:36:28.261Z,4.90
2023-06-06T16:38:56.838Z,4.60
2023-06-06T16:41:27.289Z,5.20
2023-06-06T16:43:54.783Z,6.20
2023-06-06T16:46:22.527Z,8.00
2023-06-06T16:48:50.614Z,6.20
2023-06-06T16:51:18.387Z,8.10
2023-06-06T16:53:46.200Z,6.10
2023-06-06T16:56:14.315Z,7.50
2023-06-06T16:58:41.779Z,10.10
2023-06-06T17:01:09.285Z,7.70
2023-06-06T17:03:37.159Z,6.90
2023-06-06T17:06:05.141Z,6.30
2023-06-06T17:08:32.832Z,7.80
2023-06-06T17:11:00.748Z,10.80
2023-06-06T17:13:28.278Z,8.10
2023-06-06T17:15:55.907Z,9.70
2023-06-06T17:18:23.704Z,7.30
2023-06-06T17:20:51.173Z,12.60
2023-06-06T17:23:18.816Z,11.50
2023-06-06T17:25:50.978Z,10.90
2023-06-06T17:28:19.480Z,10.70
2023-06-06T17:30:54.731Z,18.50
2023-06-06T17:33:22.634Z,15.60
2023-06-06T17:35:50.351Z,14.20
2023-06-06T17:38:19.306Z,11.50
2023-06-06T17:40:47.348Z,11.40
2023-06-06T17:43:15.317Z,17.20
2023-06-06T17:45:42.849Z,19.70
2023-06-06T17:48:13.676Z,14.30
2023-06-06T17:50:41.890Z,15.10
2023-06-06T17:53:09.825Z,17.10
2023-06-06T17:55:39.263Z,13.00
2023-06-06T17:58:07.051Z,14.30
2023-06-06T18:00:34.577Z,18.00
2023-06-06T18:03:02.321Z,14.00
2023-06-06T18:05:34.824Z,12.60
2023-06-06T18:08:04.190Z,10.60
2023-06-06T18:10:32.159Z,10.50
2023-06-06T18:12:59.815Z,13.90
2023-06-06T18:15:27.359Z,18.70
2023-06-06T18:17:56.263Z,15.70
2023-06-06T18:20:23.925Z,13.90
2023-06-06T18:22:51.500Z,15.60
2023-06-06T18:25:20.062Z,17.50
2023-06-06T18:27:47.902Z,20.20
2023-06-06T18:30:15.707Z,14.70
2023-06-06T18:32:43.402Z,12.60
2023-06-06T18:35:11.342Z,13.90
2023-06-06T18:37:38.968Z,18.30
2023-06-06T18:40:07.184Z,16.60
2023-06-06T18:42:36.582Z,13.10
2023-06-06T18:45:06.229Z,13.40
2023-06-06T18:47:34.167Z,18.40
2023-06-06T18:50:03.003Z,15.20
2023-06-06T18:52:30.909Z,14.90
2023-06-06T18:54:58.395Z,13.20
2023-06-06T18:57:25.877Z,13.00
2023-06-06T18:59:54.797Z,15.60
2023-06-06T19:02:22.473Z,19.10
2023-06-06T19:04:52.110Z,8.70
2023-06-06T19:07:20.261Z,11.80
2023-06-06T19:09:47.814Z,18.30
2023-06-06T19:12:15.432Z,83.20
2023-06-06T19:14:43.252Z,67.40
2023-06-06T19:17:11.423Z,54.20
2023-06-06T19:19:40.660Z,58.60
2023-06-06T19:22:08.684Z,63.70
2023-06-06T19:24:38.424Z,49.40
2023-06-06T19:27:06.392Z,55.60
2023-06-06T19:29:34.133Z,47.40
2023-06-06T19:32:01.751Z,45.10
2023-06-06T19:34:29.914Z,36.50
2023-06-06T19:36:57.485Z,30.10
2023-06-06T19:39:25.159Z,26.00
2023-06-06T19:41:52.639Z,21.60
2023-06-06T19:44:22.198Z,27.00
2023-06-06T19:46:49.995Z,28.50
2023-06-06T19:49:18.055Z,25.20
2023-06-06T19:51:46.721Z,22.20
2023-06-06T19:54:14.923Z,21.90
2023-06-06T19:56:42.567Z,15.90
2023-06-06T19:59:10.131Z,16.40
2023-06-06T20:01:37.671Z,16.10
2023-06-06T20:04:05.622Z,22.40
2023-06-06T20:06:36.781Z,27.30
2023-06-06T20:09:04.821Z,27.50
2023-06-06T20:11:32.424Z,21.40
2023-06-06T20:14:00.595Z,112.00
2023-06-06T20:16:28.317Z,98.80
2023-06-06T20:18:55.946Z,113.10
2023-06-06T20:21:23.486Z,49.80
2023-06-06T20:23:51.154Z,61.10
2023-06-06T20:26:18.801Z,44.90
2023-06-06T20:28:46.258Z,48.40
2023-06-06T20:31:13.873Z,52.00
2023-06-06T20:33:42.424Z,39.70
2023-06-06T20:36:10.213Z,45.50
2023-06-06T20:38:38.494Z,34.60
2023-06-06T20:41:06.529Z,23.80
2023-06-06T20:43:34.882Z,37.20
2023-06-06T20:46:02.850Z,38.90
2023-06-06T20:48:30.507Z,41.60
2023-06-06T20:50:58.791Z,33.70
2023-06-06T20:53:26.374Z,29.40
2023-06-06T20:55:54.105Z,13.70
2023-06-06T20:58:22.077Z,11.20
2023-06-06T21:00:49.610Z,19.60
2023-06-06T21:03:17.218Z,14.40
2023-06-06T21:05:44.849Z,39.20
2023-06-06T21:08:12.464Z,58.80
2023-06-06T21:10:40.254Z,62.50
2023-06-06T21:13:07.776Z,81.90
2023-06-06T21:15:35.341Z,72.10
2023-06-06T21:18:03.219Z,49.20
2023-06-06T21:20:31.154Z,63.40
2023-06-06T21:22:59.117Z,92.40
2023-06-06T21:25:28.438Z,85.90
2023-06-06T21:27:57.131Z,53.20
2023-06-06T21:30:24.785Z,31.60
2023-06-06T21:32:52.435Z,31.00
2023-06-06T21:35:20.078Z,25.60
2023-06-06T21:37:48.018Z,31.10
2023-06-06T21:40:15.552Z,53.30
2023-06-06T21:42:43.036Z,50.80
2023-06-06T21:45:11.093Z,33.00
2023-06-06T21:47:38.674Z,14.80
2023-06-06T21:50:07.664Z,13.80
2023-06-06T21:52:35.721Z,13.70
2023-06-06T21:55:03.302Z,13.60
2023-06-06T21:57:31.571Z,11.40
2023-06-06T21:59:59.979Z,9.70
2023-06-06T22:02:27.776Z,10.30
2023-06-06T22:04:55.794Z,104.00
2023-06-06T22:07:25.842Z,138.10
2023-06-06T22:09:53.289Z,128.00
2023-06-06T22:12:20.941Z,134.30
2023-06-06T22:14:51.009Z,88.40
2023-06-06T22:17:18.437Z,41.20
2023-06-06T22:19:46.039Z,15.20
2023-06-06T22:22:13.561Z,15.10
2023-06-06T22:24:41.218Z,11.50
2023-06-06T22:27:10.034Z,13.40
2023-06-06T22:29:38.778Z,9.80
2023-06-06T22:32:08.305Z,36.30
2023-06-06T22:34:36.311Z,15.90
2023-06-06T22:37:03.835Z,14.40
2023-06-06T22:39:31.259Z,12.50
2023-06-06T22:41:58.802Z,10.90
2023-06-06T22:44:26.310Z,12.60
2023-06-06T22:46:53.753Z,8.00
2023-06-06T22:49:21.237Z,10.20
2023-06-06T22:51:48.757Z,8.40
2023-06-06T22:54:19.379Z,12.70
2023-06-06T22:56:46.947Z,11.60
2023-06-06T22:59:14.436Z,29.40
2023-06-06T23:01:42.179Z,31.10
2023-06-06T23:04:09.704Z,35.30
2023-06-06T23:06:38.044Z,23.80
2023-06-06T23:09:05.667Z,34.00
2023-06-06T23:11:33.232Z,39.10
2023-06-06T23:14:00.668Z,33.40
2023-06-06T23:16:28.779Z,27.40
2023-06-06T23:18:56.400Z,33.30
2023-06-06T23:21:24.115Z,23.60
2023-06-06T23:23:51.710Z,15.50
2023-06-06T23:26:19.267Z,26.40
2023-06-06T23:28:46.863Z,67.10
2023-06-06T23:31:14.440Z,26.60
2023-06-06T23:33:42.037Z,16.80
2023-06-06T23:36:09.596Z,21.00
2023-06-06T23:38:37.048Z,23.60
2023-06-06T23:41:04.572Z,46.00
2023-06-06T23:43:34.794Z,35.90
2023-06-06T23:46:03.389Z,29.30
2023-06-06T23:48:30.996Z,18.10
2023-06-06T23:50:58.480Z,16.60
2023-06-06T23:53:25.922Z,16.70
2023-06-06T23:55:53.475Z,21.20
2023-06-06T23:58:21.047Z,17.10
